Airfield :
LOGIN :

Register | Disclaimer

   EN    FR    IT 

 










Legend :    VFR   Marginal VFR   IFR   Intensive IFR   Very Intensive IFR
Visi :
Ceiling :
>= 8 km
>= 3000ft
5 to 8 km
1000 to 3000 ft
1500m to 5 km
500 to 1000 ft
800 to 1500m
200 to 500 ft
< 800m
< 200 ft
Symbols :   Thunderstorms  Fog  Heavy snow  Heavy precipitations  Wind > 20 kt
SIGMETs :     Misc.  Thunderstorms  Icing  Turbulence  Mountain Waves  Volcanic Ashes






- Airport Elevation : 1260 ft
- IATA code : LDE


LFBT - Tarbes / Ossun

CURRENT METAR :
  • 141330Z AUTO 29005KT 260V330 9999 FEW020/// BKN056/// BKN074/// ///TCU 08/04 Q0998 BECMG SCT035

EXPIRED METARs :
  • 141230Z AUTO 26005KT 230V300 9999 -RA SCT018/// BKN029/// BKN035/// ///TCU 06/05 Q0998 BECMG SCT035
  • 141200Z AUTO 24003KT 150V310 9999 BKN028 BKN045 OVC052 08/04 Q0999 NOSIG
  • 141130Z AUTO 15007KT 9999 FEW009/// BKN050/// BKN062/// ///TCU 06/04 Q0999 TEMPO 24010KT BECMG SCT040
  • 141100Z AUTO 15004KT 100V180 9999 FEW034 SCT041 BKN056 06/05 Q1000 BECMG 24010KT

TAF TAF LFBT
Valid from the 14 at 12:00 until the 15 at 12:00 UTC


141100Z 1412/1512 VRB03KT 9999 SCT035
PROB30
TEMPO 1416/1418 4000 -SHRA BKN025TCU
PROB30 1500/1506 3000 BR



MET'MAP, your aeronautical weather chart ! - Copyright ORBIFLY December 2007 - Disclaimer

ORBIFLY MET'MAP TEAM :

Programming & Development : Alexandra Zaïnal
Concept & Development : Baudouin d'Aumeries
Co-Development & Prog : Marc-Olivier Méhu
Technical & hardware support : Manuel Goepfert

Contact : metmap@orbifly.com




SOURCES & CREDITS :

   NOAA